sensor_id;sensor_type;location;lat;lon;timestamp;pressure;altitude;pressure_sealevel;temperature;humidity
8585;BME280;7180;52.742;11.420;2022-08-19T00:01:42;100770.16;;;21.15;100.00
8585;BME280;7180;52.742;11.420;2022-08-19T00:04:09;100761.75;;;21.10;100.00
8585;BME280;7180;52.742;11.420;2022-08-19T00:06:37;100776.63;;;21.13;100.00
8585;BME280;7180;52.742;11.420;2022-08-19T00:09:05;100762.09;;;20.98;100.00
8585;BME280;7180;52.742;11.420;2022-08-19T00:11:31;100771.94;;;20.97;100.00
8585;BME280;7180;52.742;11.420;2022-08-19T00:13:57;100780.13;;;20.96;100.00
8585;BME280;7180;52.742;11.420;2022-08-19T00:16:23;100776.38;;;20.89;100.00
8585;BME280;7180;52.742;11.420;2022-08-19T00:18:50;100778.03;;;20.90;100.00
8585;BME280;7180;52.742;11.420;2022-08-19T00:21:15;100776.44;;;20.79;100.00
8585;BME280;7180;52.742;11.420;2022-08-19T00:23:41;100781.78;;;20.79;100.00
8585;BME280;7180;52.742;11.420;2022-08-19T00:26:08;100764.03;;;20.78;100.00
8585;BME280;7180;52.742;11.420;2022-08-19T00:28:34;100766.44;;;20.81;100.00
8585;BME280;7180;52.742;11.420;2022-08-19T00:31:01;100752.06;;;20.64;100.00
8585;BME280;7180;52.742;11.420;2022-08-19T00:33:28;100754.19;;;20.61;100.00
8585;BME280;7180;52.742;11.420;2022-08-19T00:35:56;100765.84;;;20.60;100.00
8585;BME280;7180;52.742;11.420;2022-08-19T00:38:21;100766.47;;;20.54;100.00
8585;BME280;7180;52.742;11.420;2022-08-19T00:40:47;100769.81;;;20.56;100.00
8585;BME280;7180;52.742;11.420;2022-08-19T00:43:13;100771.50;;;20.57;100.00
8585;BME280;7180;52.742;11.420;2022-08-19T00:45:43;100760.81;;;20.57;100.00
8585;BME280;7180;52.742;11.420;2022-08-19T00:48:09;100751.56;;;20.51;100.00
8585;BME280;7180;52.742;11.420;2022-08-19T00:50:35;100749.53;;;20.63;100.00
8585;BME280;7180;52.742;11.420;2022-08-19T00:53:01;100731.25;;;20.58;100.00
8585;BME280;7180;52.742;11.420;2022-08-19T00:55:30;100733.13;;;20.58;100.00
8585;BME280;7180;52.742;11.420;2022-08-19T00:58:09;100736.00;;;20.64;100.00
8585;BME280;7180;52.742;11.420;2022-08-19T01:00:37;100741.25;;;20.56;100.00
8585;BME280;7180;52.742;11.420;2022-08-19T01:03:15;100732.31;;;20.48;100.00
8585;BME280;7180;52.742;11.420;2022-08-19T01:05:42;100726.59;;;20.43;100.00
8585;BME280;7180;52.742;11.420;2022-08-19T01:08:09;100726.59;;;20.43;100.00
8585;BME280;7180;52.742;11.420;2022-08-19T01:10:44;100723.22;;;20.41;100.00
8585;BME280;7180;52.742;11.420;2022-08-19T01:13:12;100708.31;;;20.38;100.00
8585;BME280;7180;52.742;11.420;2022-08-19T01:15:43;100709.47;;;20.36;100.00
8585;BME280;7180;52.742;11.420;2022-08-19T01:18:12;100705.25;;;20.33;100.00
8585;BME280;7180;52.742;11.420;2022-08-19T01:20:39;100694.34;;;20.27;100.00
8585;BME280;7180;52.742;11.420;2022-08-19T01:23:04;100702.75;;;20.32;100.00
8585;BME280;7180;52.742;11.420;2022-08-19T01:25:40;100699.56;;;20.46;100.00
8585;BME280;7180;52.742;11.420;2022-08-19T01:28:06;100680.81;;;20.38;100.00
8585;BME280;7180;52.742;11.420;2022-08-19T01:30:34;100690.31;;;20.40;100.00
8585;BME280;7180;52.742;11.420;2022-08-19T01:33:00;100689.25;;;20.33;100.00
8585;BME280;7180;52.742;11.420;2022-08-19T01:35:28;100704.13;;;20.36;100.00
8585;BME280;7180;52.742;11.420;2022-08-19T01:38:01;100695.25;;;20.18;100.00
8585;BME280;7180;52.742;11.420;2022-08-19T01:40:30;100707.88;;;20.16;100.00
8585;BME280;7180;52.742;11.420;2022-08-19T01:42:57;100709.28;;;20.20;100.00
8585;BME280;7180;52.742;11.420;2022-08-19T01:45:24;100714.91;;;20.17;100.00
8585;BME280;7180;52.742;11.420;2022-08-19T01:47:51;100711.66;;;20.13;100.00
8585;BME280;7180;52.742;11.420;2022-08-19T01:50:16;100718.84;;;20.13;100.00
8585;BME280;7180;52.742;11.420;2022-08-19T01:52:43;100713.63;;;20.11;100.00
8585;BME280;7180;52.742;11.420;2022-08-19T01:55:12;100721.38;;;20.14;100.00
8585;BME280;7180;52.742;11.420;2022-08-19T01:57:39;100717.00;;;20.13;100.00
8585;BME280;7180;52.742;11.420;2022-08-19T02:00:08;100714.91;;;20.17;100.00
8585;BME280;7180;52.742;11.420;2022-08-19T02:02:35;100702.53;;;20.16;100.00
8585;BME280;7180;52.742;11.420;2022-08-19T02:05:00;100700.72;;;20.16;100.00
8585;BME280;7180;52.742;11.420;2022-08-19T02:07:25;100698.84;;;20.26;100.00
8585;BME280;7180;52.742;11.420;2022-08-19T02:09:53;100681.47;;;20.13;100.00
8585;BME280;7180;52.742;11.420;2022-08-19T02:12:19;100683.47;;;20.01;100.00
8585;BME280;7180;52.742;11.420;2022-08-19T02:14:45;100703.72;;;20.04;100.00
8585;BME280;7180;52.742;11.420;2022-08-19T02:17:10;100704.38;;;20.06;100.00
8585;BME280;7180;52.742;11.420;2022-08-19T02:19:36;100702.72;;;20.05;100.00
8585;BME280;7180;52.742;11.420;2022-08-19T02:22:01;100696.78;;;20.11;100.00
8585;BME280;7180;52.742;11.420;2022-08-19T02:24:27;100701.88;;;20.04;100.00
8585;BME280;7180;52.742;11.420;2022-08-19T02:26:53;100691.34;;;20.03;100.00
8585;BME280;7180;52.742;11.420;2022-08-19T02:29:18;100693.44;;;20.09;100.00
8585;BME280;7180;52.742;11.420;2022-08-19T02:31:43;100685.41;;;20.09;100.00
8585;BME280;7180;52.742;11.420;2022-08-19T02:34:09;100688.38;;;20.06;100.00
8585;BME280;7180;52.742;11.420;2022-08-19T02:36:34;100685.41;;;20.09;100.00
8585;BME280;7180;52.742;11.420;2022-08-19T02:39:00;100679.19;;;19.91;100.00
8585;BME280;7180;52.742;11.420;2022-08-19T02:41:29;100675.41;;;19.84;100.00
8585;BME280;7180;52.742;11.420;2022-08-19T02:43:56;100685.09;;;19.85;100.00
8585;BME280;7180;52.742;11.420;2022-08-19T02:46:25;100685.63;;;19.88;100.00
8585;BME280;7180;52.742;11.420;2022-08-19T02:48:54;100690.81;;;19.90;100.00
8585;BME280;7180;52.742;11.420;2022-08-19T02:51:25;100691.53;;;19.92;100.00
8585;BME280;7180;52.742;11.420;2022-08-19T02:53:51;100690.25;;;19.96;100.00
8585;BME280;7180;52.742;11.420;2022-08-19T02:56:17;100683.28;;;19.85;100.00
8585;BME280;7180;52.742;11.420;2022-08-19T02:58:43;100685.63;;;19.88;100.00
8585;BME280;7180;52.742;11.420;2022-08-19T03:01:09;100687.88;;;19.93;100.00
8585;BME280;7180;52.742;11.420;2022-08-19T03:03:35;100678.78;;;19.86;100.00
8585;BME280;7180;52.742;11.420;2022-08-19T03:06:11;100664.59;;;19.85;100.00
8585;BME280;7180;52.742;11.420;2022-08-19T03:08:39;100663.34;;;19.80;100.00
8585;BME280;7180;52.742;11.420;2022-08-19T03:11:05;100672.59;;;19.85;100.00
8585;BME280;7180;52.742;11.420;2022-08-19T03:13:31;100669.94;;;19.85;100.00
8585;BME280;7180;52.742;11.420;2022-08-19T03:15:56;100678.25;;;19.82;100.00
8585;BME280;7180;52.742;11.420;2022-08-19T03:18:22;100671.94;;;19.74;100.00
8585;BME280;7180;52.742;11.420;2022-08-19T03:20:49;100693.41;;;19.82;100.00
8585;BME280;7180;52.742;11.420;2022-08-19T03:23:16;100679.50;;;19.78;100.00
8585;BME280;7180;52.742;11.420;2022-08-19T03:25:43;100678.97;;;19.75;100.00
8585;BME280;7180;52.742;11.420;2022-08-19T03:28:11;100663.38;;;19.70;100.00
8585;BME280;7180;52.742;11.420;2022-08-19T03:30:37;100669.56;;;19.71;100.00
8585;BME280;7180;52.742;11.420;2022-08-19T03:33:04;100675.19;;;19.68;100.00
8585;BME280;7180;52.742;11.420;2022-08-19T03:35:30;100684.44;;;19.73;100.00
8585;BME280;7180;52.742;11.420;2022-08-19T03:37:55;100678.59;;;19.60;100.00
8585;BME280;7180;52.742;11.420;2022-08-19T03:40:21;100690.06;;;19.60;100.00
8585;BME280;7180;52.742;11.420;2022-08-19T03:42:46;100681.41;;;19.58;100.00
8585;BME280;7180;52.742;11.420;2022-08-19T03:45:12;100690.78;;;19.62;100.00
8585;BME280;7180;52.742;11.420;2022-08-19T03:47:37;100691.47;;;19.64;100.00
8585;BME280;7180;52.742;11.420;2022-08-19T03:50:03;100689.25;;;19.60;100.00
8585;BME280;7180;52.742;11.420;2022-08-19T03:52:29;100703.53;;;19.69;100.00
8585;BME280;7180;52.742;11.420;2022-08-19T03:54:54;100701.44;;;19.62;100.00
8585;BME280;7180;52.742;11.420;2022-08-19T03:57:20;100700.88;;;19.59;100.00
8585;BME280;7180;52.742;11.420;2022-08-19T03:59:45;100692.31;;;19.75;100.00
8585;BME280;7180;52.742;11.420;2022-08-19T04:02:11;100683.75;;;19.71;100.00
8585;BME280;7180;52.742;11.420;2022-08-19T04:04:38;100690.34;;;19.67;100.00
8585;BME280;7180;52.742;11.420;2022-08-19T04:07:04;100698.22;;;19.59;100.00
8585;BME280;7180;52.742;11.420;2022-08-19T04:09:30;100699.06;;;19.59;100.00
8585;BME280;7180;52.742;11.420;2022-08-19T04:11:56;100706.50;;;19.66;100.00
8585;BME280;7180;52.742;11.420;2022-08-19T04:14:28;100701.72;;;19.69;100.00
8585;BME280;7180;52.742;11.420;2022-08-19T04:16:55;100697.91;;;19.72;100.00
8585;BME280;7180;52.742;11.420;2022-08-19T04:19:21;100680.00;;;19.64;100.00
8585;BME280;7180;52.742;11.420;2022-08-19T04:21:50;100681.34;;;19.78;100.00
8585;BME280;7180;52.742;11.420;2022-08-19T04:24:16;100676.88;;;19.69;100.00
8585;BME280;7180;52.742;11.420;2022-08-19T04:26:42;100685.25;;;19.83;100.00
8585;BME280;7180;52.742;11.420;2022-08-19T04:29:11;100676.53;;;19.81;100.00
8585;BME280;7180;52.742;11.420;2022-08-19T04:31:37;100678.47;;;19.89;100.00
8585;BME280;7180;52.742;11.420;2022-08-19T04:34:05;100678.09;;;19.84;100.00
8585;BME280;7180;52.742;11.420;2022-08-19T04:36:33;100664.69;;;19.56;100.00
8585;BME280;7180;52.742;11.420;2022-08-19T04:39:03;100682.78;;;19.62;100.00
8585;BME280;7180;52.742;11.420;2022-08-19T04:41:29;100677.41;;;19.72;100.00
8585;BME280;7180;52.742;11.420;2022-08-19T04:44:14;100667.06;;;19.59;100.00
8585;BME280;7180;52.742;11.420;2022-08-19T04:46:43;100672.09;;;19.62;100.00
8585;BME280;7180;52.742;11.420;2022-08-19T04:49:08;100670.75;;;19.58;100.00
8585;BME280;7180;52.742;11.420;2022-08-19T04:51:34;100683.88;;;19.70;100.00
8585;BME280;7180;52.742;11.420;2022-08-19T04:54:00;100665.41;;;19.58;100.00
8585;BME280;7180;52.742;11.420;2022-08-19T04:56:26;100675.78;;;19.61;100.00
8585;BME280;7180;52.742;11.420;2022-08-19T04:58:54;100675.47;;;19.64;100.00
8585;BME280;7180;52.742;11.420;2022-08-19T05:01:23;100662.59;;;19.60;100.00
8585;BME280;7180;52.742;11.420;2022-08-19T05:03:48;100669.44;;;19.62;100.00
8585;BME280;7180;52.742;11.420;2022-08-19T05:06:16;100673.16;;;19.89;100.00
8585;BME280;7180;52.742;11.420;2022-08-19T05:08:43;100639.75;;;19.75;100.00
8585;BME280;7180;52.742;11.420;2022-08-19T05:11:10;100651.28;;;19.76;100.00
8585;BME280;7180;52.742;11.420;2022-08-19T05:13:36;100642.06;;;19.60;100.00
8585;BME280;7180;52.742;11.420;2022-08-19T05:16:02;100659.03;;;19.69;100.00
8585;BME280;7180;52.742;11.420;2022-08-19T05:18:27;100664.22;;;19.71;100.00
8585;BME280;7180;52.742;11.420;2022-08-19T05:21:15;100667.13;;;19.77;100.00
8585;BME280;7180;52.742;11.420;2022-08-19T05:24:00;100659.47;;;19.64;100.00
8585;BME280;7180;52.742;11.420;2022-08-19T05:26:26;100664.53;;;19.68;100.00
8585;BME280;7180;52.742;11.420;2022-08-19T05:28:52;100674.06;;;19.70;100.00
8585;BME280;7180;52.742;11.420;2022-08-19T05:31:18;100664.78;;;19.64;100.00
8585;BME280;7180;52.742;11.420;2022-08-19T05:33:43;100679.13;;;19.73;100.00
8585;BME280;7180;52.742;11.420;2022-08-19T05:36:08;100679.34;;;19.80;100.00
8585;BME280;7180;52.742;11.420;2022-08-19T05:38:34;100674.03;;;19.80;100.00
8585;BME280;7180;52.742;11.420;2022-08-19T05:41:06;100674.03;;;19.80;100.00
8585;BME280;7180;52.742;11.420;2022-08-19T05:43:32;100676.00;;;19.78;100.00
8585;BME280;7180;52.742;11.420;2022-08-19T05:45:58;100688.22;;;19.80;100.00
8585;BME280;7180;52.742;11.420;2022-08-19T05:48:23;100703.19;;;19.91;100.00
8585;BME280;7180;52.742;11.420;2022-08-19T05:50:48;100692.56;;;19.81;100.00
8585;BME280;7180;52.742;11.420;2022-08-19T05:53:15;100713.75;;;19.83;100.00
8585;BME280;7180;52.742;11.420;2022-08-19T05:55:41;100703.16;;;19.63;100.00
8585;BME280;7180;52.742;11.420;2022-08-19T05:58:07;100716.81;;;19.88;100.00
8585;BME280;7180;52.742;11.420;2022-08-19T06:00:33;100707.53;;;19.92;100.00
8585;BME280;7180;52.742;11.420;2022-08-19T06:02:58;100709.09;;;19.85;100.00
8585;BME280;7180;52.742;11.420;2022-08-19T06:05:28;100717.47;;;19.99;100.00
8585;BME280;7180;52.742;11.420;2022-08-19T06:07:54;100717.94;;;19.95;100.00
8585;BME280;7180;52.742;11.420;2022-08-19T06:10:19;100723.69;;;19.90;100.00
8585;BME280;7180;52.742;11.420;2022-08-19T06:12:47;100734.34;;;20.00;100.00
8585;BME280;7180;52.742;11.420;2022-08-19T06:15:13;100718.88;;;20.03;100.00
8585;BME280;7180;52.742;11.420;2022-08-19T06:17:39;100733.44;;;20.18;100.00
8585;BME280;7180;52.742;11.420;2022-08-19T06:20:07;100716.84;;;20.15;100.00
8585;BME280;7180;52.742;11.420;2022-08-19T06:22:40;100715.44;;;20.20;100.00
8585;BME280;7180;52.742;11.420;2022-08-19T06:25:06;100699.16;;;20.23;100.00
8585;BME280;7180;52.742;11.420;2022-08-19T06:27:32;100706.63;;;20.47;100.00
8585;BME280;7180;52.742;11.420;2022-08-19T06:29:58;100701.88;;;20.58;100.00
8585;BME280;7180;52.742;11.420;2022-08-19T06:32:23;100706.09;;;20.61;100.00
8585;BME280;7180;52.742;11.420;2022-08-19T06:34:49;100705.09;;;20.62;100.00
8585;BME280;7180;52.742;11.420;2022-08-19T06:37:15;100700.97;;;20.50;100.00
8585;BME280;7180;52.742;11.420;2022-08-19T06:39:41;100706.81;;;20.36;100.00
8585;BME280;7180;52.742;11.420;2022-08-19T06:42:07;100718.56;;;20.43;100.00
8585;BME280;7180;52.742;11.420;2022-08-19T06:44:38;100746.69;;;20.64;100.00
8585;BME280;7180;52.742;11.420;2022-08-19T06:47:06;100730.84;;;20.63;100.00
8585;BME280;7180;52.742;11.420;2022-08-19T06:49:32;100724.31;;;20.65;100.00
8585;BME280;7180;52.742;11.420;2022-08-19T06:51:58;100721.44;;;20.59;100.00
8585;BME280;7180;52.742;11.420;2022-08-19T06:54:24;100727.09;;;20.56;100.00
8585;BME280;7180;52.742;11.420;2022-08-19T06:56:50;100729.34;;;20.51;100.00
8585;BME280;7180;52.742;11.420;2022-08-19T06:59:19;100734.78;;;20.59;100.00
8585;BME280;7180;52.742;11.420;2022-08-19T07:01:47;100737.16;;;20.62;100.00
8585;BME280;7180;52.742;11.420;2022-08-19T07:04:15;100733.59;;;20.44;100.00
8585;BME280;7180;52.742;11.420;2022-08-19T07:06:41;100736.69;;;20.49;100.00
8585;BME280;7180;52.742;11.420;2022-08-19T07:09:08;100747.78;;;20.72;100.00
8585;BME280;7180;52.742;11.420;2022-08-19T07:11:34;100720.31;;;20.61;100.00
8585;BME280;7180;52.742;11.420;2022-08-19T07:14:00;100723.84;;;20.80;100.00
8585;BME280;7180;52.742;11.420;2022-08-19T07:16:26;100724.28;;;20.93;100.00
8585;BME280;7180;52.742;11.420;2022-08-19T07:18:52;100721.94;;;21.07;100.00
8585;BME280;7180;52.742;11.420;2022-08-19T07:21:22;100702.69;;;21.04;100.00
8585;BME280;7180;52.742;11.420;2022-08-19T07:23:49;100715.16;;;21.13;100.00
8585;BME280;7180;52.742;11.420;2022-08-19T07:26:18;100733.31;;;21.27;100.00
8585;BME280;7180;52.742;11.420;2022-08-19T07:28:44;100730.25;;;21.22;100.00
8585;BME280;7180;52.742;11.420;2022-08-19T07:31:12;100726.81;;;21.29;100.00
8585;BME280;7180;52.742;11.420;2022-08-19T07:33:39;100731.09;;;21.22;100.00
8585;BME280;7180;52.742;11.420;2022-08-19T07:36:07;100719.75;;;21.03;100.00
8585;BME280;7180;52.742;11.420;2022-08-19T07:38:33;100735.63;;;21.04;100.00
8585;BME280;7180;52.742;11.420;2022-08-19T07:41:00;100734.59;;;20.88;100.00
8585;BME280;7180;52.742;11.420;2022-08-19T07:43:26;100745.31;;;21.05;100.00
8585;BME280;7180;52.742;11.420;2022-08-19T07:45:53;100742.72;;;21.13;100.00
8585;BME280;7180;52.742;11.420;2022-08-19T07:48:21;100749.66;;;21.24;100.00
8585;BME280;7180;52.742;11.420;2022-08-19T07:50:48;100743.31;;;21.42;100.00
8585;BME280;7180;52.742;11.420;2022-08-19T07:53:13;100727.97;;;21.27;100.00
8585;BME280;7180;52.742;11.420;2022-08-19T07:55:38;100738.00;;;21.50;100.00
8585;BME280;7180;52.742;11.420;2022-08-19T07:58:04;100736.19;;;21.51;100.00
8585;BME280;7180;52.742;11.420;2022-08-19T08:00:30;100739.25;;;21.38;100.00
8585;BME280;7180;52.742;11.420;2022-08-19T08:02:55;100741.34;;;21.44;100.00
8585;BME280;7180;52.742;11.420;2022-08-19T08:05:20;100740.94;;;21.57;100.00
8585;BME280;7180;52.742;11.420;2022-08-19T08:08:04;100731.88;;;21.58;100.00
8585;BME280;7180;52.742;11.420;2022-08-19T08:10:48;100744.00;;;21.70;100.00
8585;BME280;7180;52.742;11.420;2022-08-19T08:13:13;100731.34;;;21.54;100.00
8585;BME280;7180;52.742;11.420;2022-08-19T08:15:39;100745.88;;;21.70;100.00
8585;BME280;7180;52.742;11.420;2022-08-19T08:18:04;100749.38;;;21.88;99.99
8585;BME280;7180;52.742;11.420;2022-08-19T08:20:29;100728.94;;;21.43;100.00
8585;BME280;7180;52.742;11.420;2022-08-19T08:22:55;100750.81;;;21.64;100.00
8585;BME280;7180;52.742;11.420;2022-08-19T08:25:38;100747.53;;;21.71;99.24
8585;BME280;7180;52.742;11.420;2022-08-19T08:28:04;100753.38;;;21.66;100.00
8585;BME280;7180;52.742;11.420;2022-08-19T08:30:30;100758.56;;;21.67;100.00
8585;BME280;7180;52.742;11.420;2022-08-19T08:32:58;100744.81;;;21.62;99.50
8585;BME280;7180;52.742;11.420;2022-08-19T08:35:24;100749.47;;;21.60;99.85
8585;BME280;7180;52.742;11.420;2022-08-19T08:37:52;100741.75;;;21.57;100.00
8585;BME280;7180;52.742;11.420;2022-08-19T08:40:23;100744.38;;;21.49;99.96
8585;BME280;7180;52.742;11.420;2022-08-19T08:43:08;100757.78;;;21.57;100.00
8585;BME280;7180;52.742;11.420;2022-08-19T08:45:38;100767.69;;;21.57;100.00
8585;BME280;7180;52.742;11.420;2022-08-19T08:48:24;100748.97;;;21.39;100.00
8585;BME280;7180;52.742;11.420;2022-08-19T08:50:54;100765.16;;;21.55;100.00
8585;BME280;7180;52.742;11.420;2022-08-19T08:53:21;100771.44;;;21.46;100.00
8585;BME280;7180;52.742;11.420;2022-08-19T08:55:47;100778.16;;;21.50;100.00
8585;BME280;7180;52.742;11.420;2022-08-19T08:58:24;100776.44;;;21.67;100.00
8585;BME280;7180;52.742;11.420;2022-08-19T09:00:51;100761.28;;;21.50;100.00
8585;BME280;7180;52.742;11.420;2022-08-19T09:03:20;100768.44;;;21.49;100.00
8585;BME280;7180;52.742;11.420;2022-08-19T09:08:57;100761.47;;;21.56;100.00
8585;BME280;7180;52.742;11.420;2022-08-19T09:11:40;100764.41;;;21.45;100.00
8585;BME280;7180;52.742;11.420;2022-08-19T09:16:44;100786.03;;;21.78;100.00
8585;BME280;7180;52.742;11.420;2022-08-19T09:19:09;100756.75;;;21.50;99.29
8585;BME280;7180;52.742;11.420;2022-08-19T09:21:36;100783.34;;;21.70;100.00
8585;BME280;7180;52.742;11.420;2022-08-19T09:24:03;100773.31;;;21.72;99.92
8585;BME280;7180;52.742;11.420;2022-08-19T09:26:30;100766.22;;;21.62;99.29
8585;BME280;7180;52.742;11.420;2022-08-19T09:28:57;100772.47;;;21.71;98.92
8585;BME280;7180;52.742;11.420;2022-08-19T09:31:26;100753.66;;;21.63;98.64
8585;BME280;7180;52.742;11.420;2022-08-19T09:33:52;100756.44;;;21.53;99.08
8585;BME280;7180;52.742;11.420;2022-08-19T09:36:23;100778.44;;;21.65;99.53
8585;BME280;7180;52.742;11.420;2022-08-19T09:38:50;100779.75;;;21.79;98.34
8585;BME280;7180;52.742;11.420;2022-08-19T09:41:19;100766.44;;;21.69;98.65
8585;BME280;7180;52.742;11.420;2022-08-19T09:43:47;100785.22;;;21.77;99.99
8585;BME280;7180;52.742;11.420;2022-08-19T09:46:13;100788.31;;;21.82;99.28
8585;BME280;7180;52.742;11.420;2022-08-19T09:48:39;100778.50;;;21.73;99.21
8585;BME280;7180;52.742;11.420;2022-08-19T09:51:09;100795.03;;;21.86;98.88
8585;BME280;7180;52.742;11.420;2022-08-19T09:53:36;100778.13;;;21.86;98.09
8585;BME280;7180;52.742;11.420;2022-08-19T09:56:02;100777.19;;;21.95;97.47
8585;BME280;7180;52.742;11.420;2022-08-19T09:58:28;100776.44;;;22.10;97.12
8585;BME280;7180;52.742;11.420;2022-08-19T10:00:59;100778.06;;;22.37;95.09
8585;BME280;7180;52.742;11.420;2022-08-19T10:03:26;100769.38;;;22.35;94.23
8585;BME280;7180;52.742;11.420;2022-08-19T10:05:53;100768.00;;;22.31;94.94
8585;BME280;7180;52.742;11.420;2022-08-19T10:08:24;100777.09;;;22.46;95.08
8585;BME280;7180;52.742;11.420;2022-08-19T10:10:51;100762.81;;;22.29;94.91
8585;BME280;7180;52.742;11.420;2022-08-19T10:13:19;100778.28;;;22.43;94.72
8585;BME280;7180;52.742;11.420;2022-08-19T10:15:47;100784.16;;;22.47;94.59
8585;BME280;7180;52.742;11.420;2022-08-19T10:18:16;100769.88;;;22.38;94.12
8585;BME280;7180;52.742;11.420;2022-08-19T10:20:43;100770.25;;;22.51;94.09
8585;BME280;7180;52.742;11.420;2022-08-19T10:23:10;100768.41;;;22.44;95.17
8585;BME280;7180;52.742;11.420;2022-08-19T10:25:36;100776.38;;;22.70;92.74
8585;BME280;7180;52.742;11.420;2022-08-19T10:28:01;100752.72;;;22.57;92.49
8585;BME280;7180;52.742;11.420;2022-08-19T10:30:26;100777.41;;;22.77;93.52
8585;BME280;7180;52.742;11.420;2022-08-19T10:32:52;100765.69;;;22.78;92.92
8585;BME280;7180;52.742;11.420;2022-08-19T10:35:18;100770.91;;;22.79;92.32
8585;BME280;7180;52.742;11.420;2022-08-19T10:37:43;100769.78;;;23.06;91.38
8585;BME280;7180;52.742;11.420;2022-08-19T10:40:09;100753.16;;;22.78;92.34
8585;BME280;7180;52.742;11.420;2022-08-19T10:42:36;100752.97;;;22.88;91.52
8585;BME280;7180;52.742;11.420;2022-08-19T10:45:03;100754.84;;;22.87;91.55
8585;BME280;7180;52.742;11.420;2022-08-19T10:47:31;100757.84;;;23.00;91.14
8585;BME280;7180;52.742;11.420;2022-08-19T10:49:56;100753.50;;;23.07;90.33
8585;BME280;7180;52.742;11.420;2022-08-19T10:52:41;100738.41;;;22.98;89.64
8585;BME280;7180;52.742;11.420;2022-08-19T10:55:07;100736.72;;;22.89;90.38
8585;BME280;7180;52.742;11.420;2022-08-19T10:57:51;100757.19;;;22.90;92.20
8585;BME280;7180;52.742;11.420;2022-08-19T11:00:19;100742.78;;;23.07;89.83
8585;BME280;7180;52.742;11.420;2022-08-19T11:02:44;100745.16;;;23.10;90.68
8585;BME280;7180;52.742;11.420;2022-08-19T11:05:11;100758.09;;;23.39;89.22
8585;BME280;7180;52.742;11.420;2022-08-19T11:07:38;100744.84;;;23.45;89.10
8585;BME280;7180;52.742;11.420;2022-08-19T11:10:04;100755.53;;;23.78;88.42
8585;BME280;7180;52.742;11.420;2022-08-19T11:12:30;100760.88;;;24.18;86.32
8585;BME280;7180;52.742;11.420;2022-08-19T11:14:55;100734.28;;;24.31;84.49
8585;BME280;7180;52.742;11.420;2022-08-19T11:17:20;100731.25;;;24.34;84.47
8585;BME280;7180;52.742;11.420;2022-08-19T11:19:48;100711.50;;;24.19;84.76
8585;BME280;7180;52.742;11.420;2022-08-19T11:22:14;100713.03;;;24.52;82.88
8585;BME280;7180;52.742;11.420;2022-08-19T11:24:39;100730.69;;;25.08;82.34
8585;BME280;7180;52.742;11.420;2022-08-19T11:27:07;100686.22;;;24.97;81.38
8585;BME280;7180;52.742;11.420;2022-08-19T11:29:35;100666.44;;;24.29;82.61
8585;BME280;7180;52.742;11.420;2022-08-19T11:32:04;100697.31;;;24.72;82.14
8585;BME280;7180;52.742;11.420;2022-08-19T11:34:30;100716.94;;;25.25;80.91
8585;BME280;7180;52.742;11.420;2022-08-19T11:36:56;100697.78;;;25.20;80.48
8585;BME280;7180;52.742;11.420;2022-08-19T11:39:25;100675.94;;;24.78;81.21
8585;BME280;7180;52.742;11.420;2022-08-19T11:41:51;100679.78;;;25.21;80.01
8585;BME280;7180;52.742;11.420;2022-08-19T11:44:16;100676.88;;;25.08;79.87
8585;BME280;7180;52.742;11.420;2022-08-19T11:46:43;100691.44;;;25.36;79.47
8585;BME280;7180;52.742;11.420;2022-08-19T11:49:11;100672.22;;;24.79;79.97
8585;BME280;7180;52.742;11.420;2022-08-19T11:51:37;100677.97;;;24.68;80.86
8585;BME280;7180;52.742;11.420;2022-08-19T11:54:04;100700.91;;;24.87;80.81
8585;BME280;7180;52.742;11.420;2022-08-19T11:56:30;100718.47;;;24.97;82.21
8585;BME280;7180;52.742;11.420;2022-08-19T11:58:56;100685.00;;;24.77;80.38
8585;BME280;7180;52.742;11.420;2022-08-19T12:01:23;100704.94;;;24.91;80.74
8585;BME280;7180;52.742;11.420;2022-08-19T12:03:50;100698.28;;;25.01;81.02
8585;BME280;7180;52.742;11.420;2022-08-19T12:06:19;100684.28;;;24.83;80.53
8585;BME280;7180;52.742;11.420;2022-08-19T12:08:45;100708.78;;;24.88;81.50
8585;BME280;7180;52.742;11.420;2022-08-19T12:11:13;100702.16;;;24.76;80.91
8585;BME280;7180;52.742;11.420;2022-08-19T12:13:39;100683.13;;;24.55;80.69
8585;BME280;7180;52.742;11.420;2022-08-19T12:16:10;100697.94;;;24.43;82.28
8585;BME280;7180;52.742;11.420;2022-08-19T12:18:38;100695.41;;;24.11;82.58
8585;BME280;7180;52.742;11.420;2022-08-19T12:21:03;100719.09;;;24.07;84.87
8585;BME280;7180;52.742;11.420;2022-08-19T12:23:28;100726.84;;;24.02;83.91
8585;BME280;7180;52.742;11.420;2022-08-19T12:25:54;100724.13;;;23.94;84.55
8585;BME280;7180;52.742;11.420;2022-08-19T12:28:20;100712.97;;;23.67;85.74
8585;BME280;7180;52.742;11.420;2022-08-19T12:30:47;100725.53;;;23.66;85.77
8585;BME280;7180;52.742;11.420;2022-08-19T12:33:12;100718.72;;;23.39;86.97
8585;BME280;7180;52.742;11.420;2022-08-19T12:35:43;100733.13;;;23.46;86.73
8585;BME280;7180;52.742;11.420;2022-08-19T12:38:10;100749.81;;;23.89;85.01
8585;BME280;7180;52.742;11.420;2022-08-19T12:40:35;100718.84;;;23.70;84.78
8585;BME280;7180;52.742;11.420;2022-08-19T12:43:01;100719.69;;;23.54;85.70
8585;BME280;7180;52.742;11.420;2022-08-19T12:45:26;100733.78;;;23.64;85.18
8585;BME280;7180;52.742;11.420;2022-08-19T12:47:52;100723.06;;;23.40;86.03
8585;BME280;7180;52.742;11.420;2022-08-19T12:50:18;100735.13;;;23.36;87.40
8585;BME280;7180;52.742;11.420;2022-08-19T12:52:46;100733.63;;;23.42;86.84
8585;BME280;7180;52.742;11.420;2022-08-19T12:55:13;100736.81;;;23.37;87.48
8585;BME280;7180;52.742;11.420;2022-08-19T12:57:38;100735.81;;;23.46;86.28
8585;BME280;7180;52.742;11.420;2022-08-19T13:02:32;100756.91;;;23.65;86.13